createdAt,value
2023-04-16T00:02:18.878Z,101090.56
2023-04-16T00:05:04.436Z,101091.66
2023-04-16T00:07:49.553Z,101088.09
2023-04-16T00:10:35.313Z,101090.59
2023-04-16T00:13:20.861Z,101087.19
2023-04-16T00:16:06.859Z,101091.44
2023-04-16T00:18:51.933Z,101082.69
2023-04-16T00:21:37.591Z,101090.47
2023-04-16T00:24:22.734Z,101093.88
2023-04-16T00:27:08.106Z,101099.19
2023-04-16T00:29:53.180Z,101094.13
2023-04-16T00:32:38.468Z,101094.41
2023-04-16T00:35:23.901Z,101096.13
2023-04-16T00:38:09.147Z,101099.91
2023-04-16T00:40:54.121Z,101098.25
2023-04-16T00:43:39.597Z,101093.03
2023-04-16T00:46:25.669Z,101090.53
2023-04-16T00:49:11.048Z,101094.75
2023-04-16T00:51:56.377Z,101084.16
2023-04-16T00:54:41.636Z,101086.88
2023-04-16T00:57:26.653Z,101090.38
2023-04-16T01:00:12.350Z,101080.63
2023-04-16T01:02:58.971Z,101091.13
2023-04-16T01:05:44.583Z,101092.84
2023-04-16T01:08:29.917Z,101091.22
2023-04-16T01:11:15.691Z,101095.50
2023-04-16T01:14:01.069Z,101102.31
2023-04-16T01:16:46.610Z,101104.13
2023-04-16T01:19:31.959Z,101092.06
2023-04-16T01:22:17.446Z,101101.44
2023-04-16T01:25:02.364Z,101104.91
2023-04-16T01:27:50.787Z,101100.69
2023-04-16T01:30:35.765Z,101106.00
2023-04-16T01:33:21.960Z,101112.97
2023-04-16T01:36:07.617Z,101118.72
2023-04-16T01:38:53.087Z,101108.34
2023-04-16T01:41:38.530Z,101110.38
2023-04-16T01:44:23.980Z,101128.53
2023-04-16T01:47:09.324Z,101122.63
2023-04-16T01:49:54.769Z,101124.06
2023-04-16T01:52:40.041Z,101121.72
2023-04-16T01:55:25.418Z,101126.75
2023-04-16T01:58:10.874Z,101124.16
2023-04-16T02:00:56.382Z,101124.16
2023-04-16T02:03:42.068Z,101127.75
2023-04-16T02:06:27.322Z,101113.06
2023-04-16T02:09:12.812Z,101125.13
2023-04-16T02:11:57.694Z,101119.59
2023-04-16T02:14:43.134Z,101123.31
2023-04-16T02:17:28.746Z,101134.56
2023-04-16T02:20:14.033Z,101131.22
2023-04-16T02:22:59.540Z,101131.28
2023-04-16T02:25:47.074Z,101125.34
2023-04-16T02:28:32.214Z,101139.03
2023-04-16T02:31:17.541Z,101131.34
2023-04-16T02:34:03.406Z,101135.25
2023-04-16T02:36:48.873Z,101136.28
2023-04-16T02:39:34.362Z,101138.09
2023-04-16T02:42:19.767Z,101131.06
2023-04-16T02:45:05.581Z,101127.56
2023-04-16T02:47:51.707Z,101125.13
2023-04-16T02:50:37.529Z,101133.78
2023-04-16T02:53:22.999Z,101126.81
2023-04-16T02:56:08.272Z,101128.53
2023-04-16T02:58:53.691Z,101135.53
2023-04-16T03:01:39.023Z,101130.38
2023-04-16T03:04:24.470Z,101125.41
2023-04-16T03:07:09.805Z,101133.06
2023-04-16T03:09:55.281Z,101138.09
2023-04-16T03:12:40.612Z,101139.63
2023-04-16T03:15:25.924Z,101128.28
2023-04-16T03:18:11.163Z,101129.06
2023-04-16T03:20:56.556Z,101132.59
2023-04-16T03:23:41.828Z,101135.41
2023-04-16T03:26:27.419Z,101144.81
2023-04-16T03:29:12.790Z,101140.50
2023-04-16T03:31:57.624Z,101138.00
2023-04-16T03:34:43.022Z,101143.06
2023-04-16T03:37:28.292Z,101153.47
2023-04-16T03:40:14.090Z,101145.59
2023-04-16T03:42:59.116Z,101147.16
2023-04-16T03:45:45.439Z,101144.53
2023-04-16T03:48:30.697Z,101156.75
2023-04-16T03:51:16.170Z,101158.38
2023-04-16T03:54:01.589Z,101160.88
2023-04-16T03:56:46.888Z,101164.22
2023-04-16T03:59:32.370Z,101163.53
2023-04-16T04:02:17.828Z,101159.06
2023-04-16T04:05:03.202Z,101156.41
2023-04-16T04:07:48.708Z,101162.72
2023-04-16T04:10:35.132Z,101160.88
2023-04-16T04:13:20.515Z,101164.09
2023-04-16T04:16:06.330Z,101161.72
2023-04-16T04:18:51.626Z,101170.28
2023-04-16T04:21:36.984Z,101173.72
2023-04-16T04:24:22.273Z,101170.88
2023-04-16T04:27:07.244Z,101174.03
2023-04-16T04:29:53.309Z,101173.47
2023-04-16T04:32:38.587Z,101189.44
2023-04-16T04:35:23.780Z,101188.66
2023-04-16T04:38:09.236Z,101188.31
2023-04-16T04:40:54.706Z,101197.53
2023-04-16T04:43:40.094Z,101199.25
2023-04-16T04:46:25.197Z,101202.56
2023-04-16T04:49:10.747Z,101204.72
2023-04-16T04:51:56.155Z,101205.59
2023-04-16T04:54:40.985Z,101204.56
2023-04-16T04:57:26.503Z,101213.94
2023-04-16T05:00:12.150Z,101208.78
2023-04-16T05:02:57.411Z,101213.03
2023-04-16T05:05:42.876Z,101216.56
2023-04-16T05:08:28.184Z,101220.75
2023-04-16T05:11:13.587Z,101226.75
2023-04-16T05:13:58.390Z,101226.59
2023-04-16T05:16:43.720Z,101237.88
2023-04-16T05:19:29.170Z,101230.88
2023-04-16T05:22:14.531Z,101230.81
2023-04-16T05:24:59.895Z,101234.28
2023-04-16T05:27:45.184Z,101238.50
2023-04-16T05:30:30.633Z,101237.44
2023-04-16T05:33:16.025Z,101250.41
2023-04-16T05:36:01.570Z,101248.81
2023-04-16T05:38:46.646Z,101251.50
2023-04-16T05:41:31.876Z,101252.81
2023-04-16T05:44:17.326Z,101263.41
2023-04-16T05:47:02.644Z,101261.38
2023-04-16T05:49:47.561Z,101270.09
2023-04-16T05:52:32.916Z,101273.63
2023-04-16T05:55:18.254Z,101281.56
2023-04-16T05:58:03.566Z,101287.81
2023-04-16T06:00:48.747Z,101276.19
2023-04-16T06:03:34.152Z,101285.34
2023-04-16T06:06:19.519Z,101292.22
2023-04-16T06:09:04.640Z,101292.34
2023-04-16T06:11:50.063Z,101291.19
2023-04-16T06:14:35.312Z,101300.34
2023-04-16T06:17:20.818Z,101289.88
2023-04-16T06:20:06.485Z,101294.50
2023-04-16T06:22:51.707Z,101298.16
2023-04-16T06:25:37.186Z,101301.25
2023-04-16T06:28:22.446Z,101309.59
2023-04-16T06:31:07.691Z,101294.81
2023-04-16T06:33:52.902Z,101299.38
2023-04-16T06:36:38.211Z,101309.84
2023-04-16T06:39:23.679Z,101307.16
2023-04-16T06:42:09.111Z,101310.06
2023-04-16T06:44:54.558Z,101313.72
2023-04-16T06:47:40.010Z,101306.25
2023-04-16T06:50:26.131Z,101316.03
2023-04-16T06:53:11.423Z,101317.06
2023-04-16T06:55:56.701Z,101317.75
2023-04-16T06:58:42.253Z,101306.19
2023-04-16T07:01:28.339Z,101319.34
2023-04-16T07:04:13.506Z,101319.72
2023-04-16T07:06:58.884Z,101320.50
2023-04-16T07:09:44.342Z,101309.22
2023-04-16T07:12:29.720Z,101318.06
2023-04-16T07:15:14.975Z,101320.72
2023-04-16T07:18:00.471Z,101320.84
2023-04-16T07:20:45.716Z,101328.75
2023-04-16T07:23:31.095Z,101325.56
2023-04-16T07:26:16.642Z,101323.06
2023-04-16T07:29:01.975Z,101323.47
2023-04-16T07:31:47.556Z,101330.66
2023-04-16T07:34:32.694Z,101322.31
2023-04-16T07:37:18.058Z,101331.19
2023-04-16T07:40:02.899Z,101331.59
2023-04-16T07:42:48.289Z,101335.41
2023-04-16T07:45:33.995Z,101330.91
2023-04-16T07:48:18.922Z,101336.88
2023-04-16T07:51:04.635Z,101335.72
2023-04-16T07:53:49.878Z,101344.31
2023-04-16T07:56:35.701Z,101341.38
2023-04-16T07:59:23.655Z,101336.22
2023-04-16T08:02:14.208Z,101336.13
2023-04-16T08:04:59.744Z,101349.50
2023-04-16T08:07:44.829Z,101340.22
2023-04-16T08:10:30.043Z,101345.00
2023-04-16T08:13:15.387Z,101333.22
2023-04-16T08:16:01.082Z,101328.03
2023-04-16T08:18:46.359Z,101325.31
2023-04-16T08:21:31.517Z,101333.75
2023-04-16T08:24:16.856Z,101332.59
2023-04-16T08:27:15.564Z,101328.22
2023-04-16T08:30:04.070Z,101326.75
2023-04-16T08:32:50.298Z,101328.81
2023-04-16T08:35:35.472Z,101327.16
2023-04-16T08:38:20.334Z,101334.38
2023-04-16T08:41:08.490Z,101329.31
2023-04-16T08:43:56.088Z,101331.63
2023-04-16T08:46:41.671Z,101340.38
2023-04-16T08:49:27.762Z,101342.25
2023-04-16T08:52:19.467Z,101346.94
2023-04-16T08:55:12.175Z,101360.22
2023-04-16T08:58:01.558Z,101355.25
2023-04-16T09:00:48.888Z,101346.00
2023-04-16T09:03:36.504Z,101340.69
2023-04-16T09:06:22.451Z,101345.19
2023-04-16T09:09:09.207Z,101339.25
2023-04-16T09:11:55.881Z,101345.91
2023-04-16T09:14:41.212Z,101356.66
2023-04-16T09:17:26.390Z,101357.88
2023-04-16T09:20:12.564Z,101344.94
2023-04-16T09:22:57.827Z,101349.81
2023-04-16T09:25:43.133Z,101327.03
2023-04-16T09:28:40.117Z,101340.38
2023-04-16T09:31:25.387Z,101343.25
2023-04-16T09:34:10.803Z,101334.06
2023-04-16T09:36:56.138Z,101342.31
2023-04-16T09:39:42.925Z,101344.97
2023-04-16T09:42:30.926Z,101344.00
2023-04-16T09:45:17.209Z,101347.06
2023-04-16T09:48:03.654Z,101356.81
2023-04-16T09:50:52.121Z,101358.72
2023-04-16T09:53:37.178Z,101366.56
2023-04-16T09:56:25.757Z,101349.31
2023-04-16T09:59:31.387Z,101366.72
2023-04-16T10:02:17.393Z,101371.88
2023-04-16T10:05:03.118Z,101387.28
2023-04-16T10:07:48.259Z,101392.44
2023-04-16T10:10:33.872Z,101392.19
2023-04-16T10:13:18.983Z,101390.72
2023-04-16T10:16:04.954Z,101410.19
2023-04-16T10:18:50.046Z,101400.28
2023-04-16T10:21:35.494Z,101403.78
2023-04-16T10:24:20.928Z,101418.75
2023-04-16T10:27:06.417Z,101422.69
2023-04-16T10:29:51.864Z,101420.72
2023-04-16T10:32:38.222Z,101421.53
2023-04-16T10:35:25.477Z,101422.53
2023-04-16T10:38:22.916Z,101418.19
2023-04-16T10:41:08.488Z,101409.88
2023-04-16T10:44:03.237Z,101426.31
2023-04-16T10:46:49.009Z,101433.50
2023-04-16T10:49:35.473Z,101433.88
2023-04-16T10:52:20.806Z,101429.16
2023-04-16T10:55:06.764Z,101430.97
2023-04-16T10:57:52.118Z,101417.44
2023-04-16T11:01:07.928Z,101429.88
2023-04-16T11:03:53.503Z,101406.44
2023-04-16T11:06:38.670Z,101405.84
2023-04-16T11:09:45.880Z,101401.59
2023-04-16T11:12:36.147Z,101387.34
2023-04-16T11:15:21.470Z,101406.34
2023-04-16T11:18:07.530Z,101391.25
2023-04-16T11:20:52.968Z,101406.28
2023-04-16T11:23:49.696Z,101403.03
2023-04-16T11:26:34.976Z,101402.69
2023-04-16T11:29:20.308Z,101402.84
2023-04-16T11:32:06.308Z,101406.44
2023-04-16T11:34:51.995Z,101418.78
2023-04-16T11:37:38.848Z,101411.16
2023-04-16T11:40:24.414Z,101407.50
2023-04-16T11:43:16.805Z,101400.84
2023-04-16T11:46:10.313Z,101399.13
2023-04-16T11:49:06.874Z,101403.78
2023-04-16T11:51:52.991Z,101389.88
2023-04-16T11:54:38.492Z,101396.69
2023-04-16T11:57:27.924Z,101400.97
2023-04-16T12:00:14.849Z,101407.72
2023-04-16T12:03:03.012Z,101395.47
2023-04-16T12:05:48.419Z,101415.47
2023-04-16T12:08:34.484Z,101419.06
2023-04-16T12:11:19.860Z,101417.53
2023-04-16T12:14:10.469Z,101419.84
2023-04-16T12:16:56.043Z,101423.38
2023-04-16T12:19:51.205Z,101418.41
2023-04-16T12:22:38.660Z,101413.44
2023-04-16T12:25:24.593Z,101419.38
2023-04-16T12:28:10.009Z,101424.00
2023-04-16T12:30:55.889Z,101423.47
2023-04-16T12:33:41.200Z,101404.13
2023-04-16T12:36:26.130Z,101415.34
2023-04-16T12:39:12.438Z,101410.22
2023-04-16T12:41:57.839Z,101405.19
2023-04-16T12:44:43.388Z,101401.53
2023-04-16T12:47:28.883Z,101393.84
2023-04-16T12:50:14.262Z,101421.53
2023-04-16T12:52:59.755Z,101412.84
2023-04-16T12:55:45.062Z,101406.84
2023-04-16T12:58:30.391Z,101406.28
2023-04-16T13:01:15.407Z,101411.47
2023-04-16T13:04:01.092Z,101413.13
2023-04-16T13:06:46.299Z,101423.69
2023-04-16T13:09:31.843Z,101421.75
2023-04-16T13:12:16.824Z,101443.50
2023-04-16T13:15:02.027Z,101432.63
2023-04-16T13:17:47.161Z,101438.25
2023-04-16T13:20:33.135Z,101436.94
2023-04-16T13:23:18.377Z,101434.63
2023-04-16T13:26:03.240Z,101441.41
2023-04-16T13:28:48.352Z,101431.91
2023-04-16T13:31:33.689Z,101435.59
2023-04-16T13:34:19.736Z,101442.81
2023-04-16T13:37:05.047Z,101429.78
2023-04-16T13:39:50.477Z,101419.81
2023-04-16T13:42:35.374Z,101420.06
2023-04-16T13:45:20.850Z,101418.50
2023-04-16T13:48:05.827Z,101415.16
2023-04-16T13:50:51.065Z,101410.34
2023-04-16T13:53:36.298Z,101400.03
2023-04-16T13:56:21.817Z,101402.06
2023-04-16T13:59:07.780Z,101405.06
2023-04-16T14:01:53.177Z,101403.59
2023-04-16T14:04:38.248Z,101377.97
2023-04-16T14:07:23.758Z,101362.44
2023-04-16T14:10:09.681Z,101340.81
2023-04-16T14:12:55.026Z,101344.28
2023-04-16T14:15:40.085Z,101343.09
2023-04-16T14:18:23.092Z,101346.44
2023-04-16T14:21:08.689Z,101334.72
2023-04-16T14:23:53.792Z,101342.81
2023-04-16T14:26:39.163Z,101344.38
2023-04-16T14:29:24.574Z,101336.81
2023-04-16T14:32:10.239Z,101369.06
2023-04-16T14:34:55.654Z,101369.88
2023-04-16T14:37:41.150Z,101369.44
2023-04-16T14:40:26.222Z,101369.72
2023-04-16T14:43:11.497Z,101362.41
2023-04-16T14:45:57.070Z,101373.78
2023-04-16T14:48:43.097Z,101355.81
2023-04-16T14:51:28.456Z,101357.97
2023-04-16T14:54:14.024Z,101362.63
2023-04-16T14:56:59.541Z,101366.28
2023-04-16T14:59:44.664Z,101359.34
2023-04-16T15:02:30.225Z,101336.53
2023-04-16T15:05:15.562Z,101343.38
2023-04-16T15:08:00.708Z,101362.63
2023-04-16T15:10:45.942Z,101348.31
2023-04-16T15:13:31.087Z,101365.00
2023-04-16T15:16:17.101Z,101374.06
2023-04-16T15:19:04.802Z,101366.28
2023-04-16T15:21:50.138Z,101369.78
2023-04-16T15:24:35.521Z,101361.44
2023-04-16T15:27:20.829Z,101351.19
2023-04-16T15:30:07.175Z,101360.78
2023-04-16T15:32:52.172Z,101368.78
2023-04-16T15:35:37.905Z,101353.28
2023-04-16T15:38:22.988Z,101342.91
2023-04-16T15:41:09.472Z,101347.28
2023-04-16T15:43:54.460Z,101352.59
2023-04-16T15:46:39.980Z,101355.13
2023-04-16T15:49:25.781Z,101354.22
2023-04-16T15:52:11.386Z,101355.03
2023-04-16T15:54:56.873Z,101362.88
2023-04-16T15:57:42.213Z,101362.97
2023-04-16T16:00:27.434Z,101368.06
2023-04-16T16:03:13.116Z,101363.69
2023-04-16T16:05:59.409Z,101377.53
2023-04-16T16:08:44.914Z,101375.00
2023-04-16T16:11:30.445Z,101387.94
2023-04-16T16:14:18.112Z,101372.34
2023-04-16T16:17:03.686Z,101375.13
2023-04-16T16:19:49.057Z,101358.66
2023-04-16T16:22:34.473Z,101366.44
2023-04-16T16:25:20.185Z,101380.13
2023-04-16T16:28:06.526Z,101400.13
2023-04-16T16:30:52.058Z,101404.41
2023-04-16T16:33:38.481Z,101381.66
2023-04-16T16:36:26.023Z,101384.25
2023-04-16T16:39:11.679Z,101382.41
2023-04-16T16:41:57.000Z,101403.09
2023-04-16T16:44:42.174Z,101415.97
2023-04-16T16:47:27.685Z,101434.03
2023-04-16T16:50:13.001Z,101428.00
2023-04-16T16:52:59.380Z,101433.13
2023-04-16T16:55:44.384Z,101439.97
2023-04-16T16:58:29.805Z,101438.88
2023-04-16T17:01:14.749Z,101422.94
2023-04-16T17:04:00.355Z,101436.22
2023-04-16T17:06:45.561Z,101453.63
2023-04-16T17:09:31.464Z,101447.53
2023-04-16T17:12:16.758Z,101434.91
2023-04-16T17:15:01.624Z,101433.44
2023-04-16T17:17:47.025Z,101418.75
2023-04-16T17:20:32.456Z,101414.06
2023-04-16T17:23:17.626Z,101428.66
2023-04-16T17:26:02.544Z,101429.34
2023-04-16T17:28:47.852Z,101431.47
2023-04-16T17:31:33.198Z,101431.38
2023-04-16T17:34:20.964Z,101452.81
2023-04-16T17:37:06.327Z,101474.41
2023-04-16T17:39:51.758Z,101475.16
2023-04-16T17:42:37.325Z,101487.13
2023-04-16T17:45:22.805Z,101477.00
2023-04-16T17:48:08.197Z,101468.25
2023-04-16T17:50:53.465Z,101464.78
2023-04-16T17:53:38.514Z,101464.41
2023-04-16T17:56:23.721Z,101469.53
2023-04-16T17:59:09.073Z,101479.28
2023-04-16T18:01:54.793Z,101482.50
2023-04-16T18:04:39.953Z,101515.41
2023-04-16T18:07:25.343Z,101517.91
2023-04-16T18:10:10.247Z,101534.34
2023-04-16T18:12:55.420Z,101534.34
2023-04-16T18:15:40.887Z,101537.59
2023-04-16T18:18:26.335Z,101537.56
2023-04-16T18:21:12.033Z,101539.16
2023-04-16T18:23:57.349Z,101544.13
2023-04-16T18:26:42.522Z,101548.53
2023-04-16T18:29:33.948Z,101545.78
2023-04-16T18:32:19.188Z,101555.19
2023-04-16T18:35:08.270Z,101553.31
2023-04-16T18:37:53.415Z,101554.28
2023-04-16T18:40:39.761Z,101556.78
2023-04-16T18:43:25.184Z,101568.88
2023-04-16T18:46:10.708Z,101573.03
2023-04-16T18:48:55.502Z,101564.31
2023-04-16T18:51:41.009Z,101570.97
2023-04-16T18:54:26.453Z,101571.00
2023-04-16T18:57:11.854Z,101577.81
2023-04-16T18:59:57.246Z,101579.47
2023-04-16T19:02:42.704Z,101584.81
2023-04-16T19:05:29.338Z,101588.25
2023-04-16T19:08:14.542Z,101582.53
2023-04-16T19:11:00.184Z,101571.31
2023-04-16T19:13:45.662Z,101582.81
2023-04-16T19:16:31.727Z,101589.03
2023-04-16T19:19:17.216Z,101597.50
2023-04-16T19:22:02.518Z,101602.94
2023-04-16T19:24:47.858Z,101599.72
2023-04-16T19:27:33.614Z,101605.81
2023-04-16T19:30:19.075Z,101608.16
2023-04-16T19:33:04.433Z,101617.41
2023-04-16T19:35:49.790Z,101614.63
2023-04-16T19:38:35.134Z,101618.00
2023-04-16T19:41:20.326Z,101626.28
2023-04-16T19:44:05.801Z,101607.22
2023-04-16T19:46:51.285Z,101611.47
2023-04-16T19:49:36.803Z,101605.47
2023-04-16T19:52:21.712Z,101605.34
2023-04-16T19:55:07.623Z,101598.28
2023-04-16T19:57:52.948Z,101599.97
2023-04-16T20:00:39.589Z,101604.66
2023-04-16T20:03:24.711Z,101599.38
2023-04-16T20:06:10.146Z,101595.97
2023-04-16T20:08:56.249Z,101593.09
2023-04-16T20:11:41.506Z,101586.84
2023-04-16T20:14:26.881Z,101599.53
2023-04-16T20:17:12.402Z,101592.81
2023-04-16T20:19:57.912Z,101598.75
2023-04-16T20:22:43.411Z,101591.19
2023-04-16T20:25:28.543Z,101587.19
2023-04-16T20:28:13.863Z,101587.88
2023-04-16T20:31:02.242Z,101587.72
2023-04-16T20:33:47.701Z,101593.75
2023-04-16T20:36:33.030Z,101604.81
2023-04-16T20:39:18.224Z,101604.13
2023-04-16T20:42:03.803Z,101605.94
2023-04-16T20:44:49.485Z,101604.75
2023-04-16T20:47:35.083Z,101608.28
2023-04-16T20:50:20.150Z,101610.28
2023-04-16T20:53:05.473Z,101608.69
2023-04-16T20:55:50.925Z,101608.69
2023-04-16T20:58:36.287Z,101608.22
2023-04-16T21:01:21.859Z,101598.94
2023-04-16T21:04:07.388Z,101598.75
2023-04-16T21:06:52.381Z,101607.81
2023-04-16T21:09:37.780Z,101611.59
2023-04-16T21:12:23.341Z,101605.31
2023-04-16T21:15:09.110Z,101619.84
2023-04-16T21:17:54.115Z,101619.63
2023-04-16T21:20:39.673Z,101623.16
2023-04-16T21:23:24.779Z,101621.22
2023-04-16T21:26:10.352Z,101624.31
2023-04-16T21:28:55.735Z,101624.03
2023-04-16T21:31:41.211Z,101624.44
2023-04-16T21:34:26.551Z,101631.13
2023-04-16T21:37:11.766Z,101630.03
2023-04-16T21:39:57.208Z,101627.88
2023-04-16T21:42:42.631Z,101626.75
2023-04-16T21:45:29.975Z,101629.97
2023-04-16T21:48:15.627Z,101628.16
2023-04-16T21:51:01.546Z,101631.59
2023-04-16T21:53:46.922Z,101625.13
2023-04-16T21:56:32.468Z,101628.19
2023-04-16T21:59:17.742Z,101629.97
2023-04-16T22:02:03.278Z,101629.50
2023-04-16T22:04:48.392Z,101631.19
2023-04-16T22:07:33.938Z,101633.63
2023-04-16T22:10:19.215Z,101638.63
2023-04-16T22:13:04.269Z,101636.34
2023-04-16T22:15:49.620Z,101636.78
2023-04-16T22:18:34.998Z,101638.13
2023-04-16T22:21:20.470Z,101631.13
2023-04-16T22:24:06.057Z,101637.22
2023-04-16T22:26:51.371Z,101643.09
2023-04-16T22:29:36.896Z,101652.25
2023-04-16T22:32:22.507Z,101643.84
2023-04-16T22:35:08.240Z,101641.19
2023-04-16T22:37:53.098Z,101656.69
2023-04-16T22:40:38.555Z,101651.09
2023-04-16T22:43:23.842Z,101651.03
2023-04-16T22:46:09.466Z,101658.72
2023-04-16T22:48:55.089Z,101652.41
2023-04-16T22:51:40.466Z,101652.34
2023-04-16T22:54:32.727Z,101646.38
2023-04-16T22:57:18.161Z,101655.94
2023-04-16T23:00:03.990Z,101668.38
2023-04-16T23:02:49.417Z,101666.53
2023-04-16T23:05:34.944Z,101674.25
2023-04-16T23:08:20.170Z,101678.94
2023-04-16T23:11:05.586Z,101683.53
2023-04-16T23:13:51.044Z,101676.88
2023-04-16T23:16:36.338Z,101682.69
2023-04-16T23:19:21.913Z,101676.66
2023-04-16T23:22:07.107Z,101672.47
2023-04-16T23:24:52.448Z,101675.88
2023-04-16T23:27:37.598Z,101671.09
2023-04-16T23:30:22.956Z,101667.47
2023-04-16T23:33:07.852Z,101676.38
2023-04-16T23:35:53.143Z,101663.88
2023-04-16T23:38:38.630Z,101663.41
2023-04-16T23:41:24.050Z,101653.72
2023-04-16T23:44:09.497Z,101662.16
2023-04-16T23:46:54.798Z,101644.81
2023-04-16T23:49:40.237Z,101655.78
2023-04-16T23:52:25.713Z,101655.38
2023-04-16T23:55:10.586Z,101663.75
2023-04-16T23:57:55.850Z,101654.38
